South Heart, North Dakota
Current Conditions -  °F | °C
As of 12:56 PM on Saturday 25 Oct 2014 (Local Time) from KDIK Reporting Station
Clear Clear  
Wind Chill: 62°   Ceiling: Unl
Heat Index: 62°   Visibility: 10mi
Dew Point: 28°   Wind: 10mph
Humidity: 28%   Direction: 150°SSE
Pressure: 30.06"   Gusts: NA
Location:  46.86°N, 102.99°W
Report Text: KDIK 251856Z AUTO 15009KT 10SM CLR 17/M02 A3006 RMK AO2 SLP180 T01671022
Loading
Personal Weather Stations






























Interactive Weather Map
Tropical Storm Tracking
New forecast layout! Learn more

10-Day Weather Forecast

Advertisements
Track Severe Weather on mobile